createdAt,value
2019-01-28T00:06:08.431Z,1.80
2019-01-28T00:16:13.585Z,1.83
2019-01-28T00:26:18.764Z,1.60
2019-01-28T00:36:23.935Z,1.63
2019-01-28T00:46:29.092Z,1.97
2019-01-28T00:56:34.237Z,1.60
2019-01-28T01:06:39.382Z,1.60
2019-01-28T01:16:44.518Z,1.70
2019-01-28T01:26:49.656Z,1.90
2019-01-28T01:36:54.873Z,1.37
2019-01-28T01:47:00.016Z,1.60
2019-01-28T01:57:05.173Z,1.63
2019-01-28T04:03:54.915Z,1.50
2019-01-28T04:14:00.056Z,1.60
2019-01-28T04:24:05.195Z,1.50
2019-01-28T04:34:10.366Z,1.70
2019-01-28T04:44:15.502Z,1.33
2019-01-28T04:54:20.662Z,1.57
2019-01-28T05:04:25.797Z,1.40
2019-01-28T05:14:30.949Z,1.40
2019-01-28T05:24:36.188Z,1.30
2019-01-28T05:34:41.373Z,1.50
2019-01-28T05:44:46.919Z,1.60
2019-01-28T05:54:52.078Z,1.40
2019-01-28T06:04:57.218Z,1.40
2019-01-28T06:15:02.352Z,1.30
2019-01-28T06:25:07.497Z,1.40
2019-01-28T06:35:12.707Z,1.40
2019-01-28T06:45:17.864Z,1.37
2019-01-28T06:55:23.006Z,1.30
2019-01-28T07:05:28.283Z,1.30
2019-01-28T07:15:33.579Z,1.33
2019-01-28T07:25:38.785Z,1.40
2019-01-28T07:35:44.379Z,2.33
2019-01-28T07:45:49.532Z,1.30
2019-01-28T07:55:54.673Z,1.50
2019-01-28T08:05:59.871Z,2.00
2019-01-28T08:16:05.141Z,1.60
2019-01-28T08:26:10.593Z,1.77
2019-01-28T08:36:15.836Z,1.80
2019-01-28T08:46:20.976Z,1.60
2019-01-28T08:56:26.760Z,1.87
2019-01-28T09:06:31.902Z,3.40
2019-01-28T09:27:59.081Z,1.43
2019-01-28T09:38:04.230Z,1.53
2019-01-28T09:48:11.047Z,1.37
2019-01-28T09:58:16.165Z,1.20
2019-01-28T10:08:21.442Z,1.30
2019-01-28T10:18:26.579Z,1.53
2019-01-28T10:28:31.681Z,1.50
2019-01-28T10:38:36.872Z,1.27
2019-01-28T10:48:49.351Z,1.20
2019-01-28T10:58:48.861Z,1.50
2019-01-28T11:08:53.971Z,1.40
2019-01-28T11:18:59.170Z,1.30
2019-01-28T11:29:04.549Z,1.10
2019-01-28T11:39:11.200Z,1.20
2019-01-28T11:49:16.458Z,1.20
2019-01-28T11:59:21.732Z,1.10
2019-01-28T12:09:27.015Z,1.30
2019-01-28T12:19:32.194Z,1.10
2019-01-28T12:29:37.435Z,1.40
2019-01-28T12:39:42.629Z,1.40
2019-01-28T12:49:48.232Z,1.17
2019-01-28T12:59:56.160Z,1.33
2019-01-28T13:10:01.874Z,1.50
2019-01-28T13:20:07.658Z,1.20
2019-01-28T13:30:18.352Z,1.43
2019-01-28T13:40:23.750Z,1.60
2019-01-28T13:50:32.026Z,1.60
2019-01-28T14:00:37.594Z,2.20
2019-01-28T14:10:42.746Z,2.57
2019-01-28T14:20:47.916Z,2.60
2019-01-28T14:30:53.040Z,2.80
2019-01-28T14:40:58.176Z,2.37
2019-01-28T14:51:03.290Z,2.17
2019-01-28T15:01:09.509Z,2.50
2019-01-28T15:11:14.975Z,2.80
2019-01-28T15:21:20.085Z,2.70
2019-01-28T15:31:25.387Z,2.03
2019-01-28T15:41:32.486Z,2.17
2019-01-28T15:51:37.685Z,2.40
2019-01-28T16:01:43.521Z,2.10
2019-01-28T16:11:49.918Z,2.17
2019-01-28T16:21:55.307Z,2.17
2019-01-28T16:32:02.353Z,2.30
2019-01-28T16:42:07.835Z,2.37
2019-01-28T16:52:12.988Z,1.97
2019-01-28T17:02:18.629Z,1.90
2019-01-28T17:12:25.657Z,2.47
2019-01-28T17:22:33.301Z,2.30
2019-01-28T17:32:39.232Z,2.20
2019-01-28T17:42:46.647Z,1.80
2019-01-28T17:52:52.753Z,2.10
2019-01-28T18:02:58.867Z,2.23
2019-01-28T18:13:05.173Z,1.97
2019-01-28T18:23:18.537Z,1.80
2019-01-28T18:33:24.760Z,1.90
2019-01-28T18:43:31.592Z,2.10
2019-01-28T18:53:37.901Z,2.47
2019-01-28T19:03:44.427Z,2.00
2019-01-28T19:14:07.363Z,2.07
2019-01-28T19:24:14.238Z,2.50
2019-01-28T19:34:21.983Z,1.90
2019-01-28T19:44:30.139Z,2.60
2019-01-28T19:54:37.396Z,2.60
2019-01-28T20:04:44.210Z,3.50
2019-01-28T20:14:51.350Z,3.87
2019-01-28T20:24:58.172Z,4.20
2019-01-28T20:35:05.107Z,4.27
2019-01-28T20:45:14.119Z,4.70
2019-01-28T20:55:22.468Z,4.60
2019-01-28T21:05:29.303Z,5.30
2019-01-28T21:15:36.105Z,4.43
2019-01-28T21:25:42.929Z,3.43
2019-01-28T21:36:03.621Z,4.00
2019-01-28T21:46:09.662Z,3.80
2019-01-28T21:56:15.873Z,4.60
2019-01-28T22:06:22.318Z,3.80
2019-01-28T22:16:27.750Z,3.50
2019-01-28T22:26:32.937Z,4.50
2019-01-28T22:36:38.133Z,3.90
2019-01-28T22:46:44.089Z,3.47
2019-01-28T22:56:49.364Z,3.30
2019-01-28T23:17:11.398Z,3.10
2019-01-28T23:27:16.580Z,3.47
2019-01-28T23:37:23.085Z,2.93
2019-01-28T23:47:28.295Z,3.40
2019-01-28T23:57:33.442Z,3.20
